Time;durP1;ratioP1;P1;durP2;ratioP2;P2;SDS_P1;SDS_P2;PMS_P1;PMS_P2;Temp;Humidity;BMP_temperature;BMP_pressure;BME280_temperature;BME280_humidity;BME280_pressure;Samples;Min_cycle;Max_cycle;Signal;HPM_P1;HPM_P2
2021/06/08 00:00:26;;;;;;;26.30;23.50;;;;;;;;;;5073306;28;20527;-70
2021/06/08 00:02:52;;;;;;;25.80;23.23;;;;;;;;;;5071370;28;20406;-69
2021/06/08 00:08:22;;;;;;;26.27;23.50;;;;;;;;;;5072975;28;20429;-70
2021/06/08 00:10:48;;;;;;;26.37;23.00;;;;;;;;;;5071784;28;20422;-70
2021/06/08 00:13:14;;;;;;;25.43;22.73;;;;;;;;;;5073004;28;20762;-70
2021/06/08 00:15:40;;;;;;;26.40;23.63;;;;;;;;;;5072745;28;20402;-69
2021/06/08 00:18:06;;;;;;;31.87;25.80;;;;;;;;;;5072414;28;20436;-71
2021/06/08 00:20:32;;;;;;;25.93;23.33;;;;;;;;;;5072642;28;20545;-69
2021/06/08 00:22:58;;;;;;;24.73;22.03;;;;;;;;;;5072436;28;20410;-69
2021/06/08 00:25:25;;;;;;;25.17;22.57;;;;;;;;;;5071255;28;20430;-70
2021/06/08 00:27:56;;;;;;;26.60;23.37;;;;;;;;;;5072674;28;20410;-70
2021/06/08 00:30:23;;;;;;;27.27;24.50;;;;;;;;;;5072737;28;20418;-71
2021/06/08 00:32:49;;;;;;;27.57;24.57;;;;;;;;;;5072487;28;20431;-70
2021/06/08 00:38:18;;;;;;;27.07;22.10;;;;;;;;;;5072399;28;20425;-69
2021/06/08 00:40:45;;;;;;;26.80;24.03;;;;;;;;;;5072073;28;20470;-70
2021/06/08 00:43:12;;;;;;;28.93;25.67;;;;;;;;;;5072282;28;20414;-68
2021/06/08 00:45:38;;;;;;;19.90;18.00;;;;;;;;;;5071111;28;20422;-70
2021/06/08 00:48:06;;;;;;;17.10;15.30;;;;;;;;;;5072310;28;20430;-70
2021/06/08 00:53:35;;;;;;;7.13;6.43;;;;;;;;;;5072263;28;20445;-71
2021/06/08 00:56:03;;;;;;;6.80;6.20;;;;;;;;;;5072358;28;20411;-70
2021/06/08 00:58:29;;;;;;;6.30;5.70;;;;;;;;;;5072396;28;20415;-70
2021/06/08 01:00:55;;;;;;;6.27;5.67;;;;;;;;;;5072070;28;20538;-68
2021/06/08 01:03:21;;;;;;;13.97;12.57;;;;;;;;;;5072035;28;20417;-69
2021/06/08 01:08:50;;;;;;;10.20;7.37;;;;;;;;;;5072140;28;20487;-70
2021/06/08 01:11:16;;;;;;;8.80;7.17;;;;;;;;;;5071959;28;20501;-69
2021/06/08 01:13:43;;;;;;;11.30;8.40;;;;;;;;;;5070570;28;20433;-70
2021/06/08 01:16:10;;;;;;;8.03;7.33;;;;;;;;;;5070729;28;20417;-70
2021/06/08 01:18:36;;;;;;;11.37;10.27;;;;;;;;;;5071928;28;20414;-70
2021/06/08 01:24:05;;;;;;;11.03;9.53;;;;;;;;;;5071915;28;20949;-70
2021/06/08 01:26:32;;;;;;;12.13;11.07;;;;;;;;;;5071581;28;20460;-70
2021/06/08 01:28:59;;;;;;;13.73;12.33;;;;;;;;;;5071883;28;20417;-70
2021/06/08 01:31:26;;;;;;;14.27;12.97;;;;;;;;;;5071945;28;20429;-70
2021/06/08 01:33:52;;;;;;;16.70;13.83;;;;;;;;;;5071720;28;20422;-70
2021/06/08 01:36:22;;;;;;;16.43;14.77;;;;;;;;;;5071706;28;20458;-70
2021/06/08 01:38:51;;;;;;;15.13;13.63;;;;;;;;;;5071863;28;20442;-70
2021/06/08 01:41:22;;;;;;;16.77;14.63;;;;;;;;;;5072037;28;20426;-71
2021/06/08 01:43:49;;;;;;;14.27;12.87;;;;;;;;;;5072044;28;20406;-71
2021/06/08 01:46:15;;;;;;;15.57;13.80;;;;;;;;;;5070132;28;20912;-69
2021/06/08 01:48:41;;;;;;;15.00;13.27;;;;;;;;;;5071264;28;20901;-70
2021/06/08 01:54:30;;;;;;;15.40;13.97;;;;;;;;;;5075618;28;20784;-71
2021/06/08 01:57:01;;;;;;;14.70;13.30;;;;;;;;;;5075755;28;20425;-69
2021/06/08 01:59:33;;;;;;;14.57;13.17;;;;;;;;;;5075369;28;20967;-70
2021/06/08 02:02:07;;;;;;;15.60;14.07;;;;;;;;;;5076191;28;20414;-69
2021/06/08 02:04:33;;;;;;;19.37;15.10;;;;;;;;;;5076201;28;20504;-69
2021/06/08 02:07:07;;;;;;;17.47;15.77;;;;;;;;;;5075821;28;20879;-68
2021/06/08 02:09:42;;;;;;;17.47;15.77;;;;;;;;;;5076307;28;20406;-70
2021/06/08 02:12:18;;;;;;;23.80;17.50;;;;;;;;;;5076143;28;20418;-69
2021/06/08 02:14:49;;;;;;;19.03;17.03;;;;;;;;;;5076166;28;20402;-70
2021/06/08 02:17:18;;;;;;;20.27;17.47;;;;;;;;;;5075844;28;20472;-69
2021/06/08 02:19:45;;;;;;;15.20;13.60;;;;;;;;;;5074868;28;20830;-70
2021/06/08 02:22:12;;;;;;;13.60;12.40;;;;;;;;;;5074554;28;20524;-70
2021/06/08 02:24:38;;;;;;;14.13;12.63;;;;;;;;;;5075800;28;20900;-71
2021/06/08 02:27:05;;;;;;;14.40;12.90;;;;;;;;;;5075625;28;20430;-70
2021/06/08 02:29:31;;;;;;;14.20;12.90;;;;;;;;;;5075819;28;20413;-69
2021/06/08 02:31:58;;;;;;;15.37;13.67;;;;;;;;;;5075784;28;20465;-69
2021/06/08 02:40:13;;;;;;;11.90;10.70;;;;;;;;;;5075366;28;20927;-70
2021/06/08 02:42:39;;;;;;;11.33;10.23;;;;;;;;;;5075475;28;20414;-70
2021/06/08 02:45:06;;;;;;;11.20;10.10;;;;;;;;;;5075250;28;20418;-69
2021/06/08 02:47:32;;;;;;;12.50;10.90;;;;;;;;;;5074476;28;20410;-71
2021/06/08 02:49:59;;;;;;;11.10;10.10;;;;;;;;;;5073948;28;20553;-70
2021/06/08 02:52:26;;;;;;;12.10;10.97;;;;;;;;;;5074477;28;20410;-69
2021/06/08 02:54:53;;;;;;;11.50;10.40;;;;;;;;;;5074442;28;20501;-70
2021/06/08 02:57:20;;;;;;;15.30;11.80;;;;;;;;;;5074292;28;20414;-70
2021/06/08 02:59:49;;;;;;;14.50;12.90;;;;;;;;;;5074198;28;20462;-73
2021/06/08 03:02:16;;;;;;;15.70;14.00;;;;;;;;;;5072602;28;20900;-70
2021/06/08 03:04:45;;;;;;;16.90;15.30;;;;;;;;;;5074055;28;20429;-71
2021/06/08 03:07:12;;;;;;;21.07;18.87;;;;;;;;;;5072736;28;20449;-68
2021/06/08 03:09:48;;;;;;;23.30;20.80;;;;;;;;;;5073798;28;20413;-70
2021/06/08 03:12:15;;;;;;;26.50;23.60;;;;;;;;;;5074227;28;20422;-69
2021/06/08 03:14:44;;;;;;;27.40;24.50;;;;;;;;;;5074110;28;20421;-70
2021/06/08 03:17:11;;;;;;;25.93;22.27;;;;;;;;;;5074040;28;20418;-72
2021/06/08 03:19:38;;;;;;;29.13;24.20;;;;;;;;;;5073546;28;20457;-70
2021/06/08 03:25:09;;;;;;;28.20;24.57;;;;;;;;;;5073774;28;20433;-71
2021/06/08 03:27:35;;;;;;;29.50;23.80;;;;;;;;;;5073706;28;20406;-72
2021/06/08 03:30:01;;;;;;;31.07;25.73;;;;;;;;;;5073347;28;20446;-70
2021/06/08 03:32:27;;;;;;;28.43;23.80;;;;;;;;;;5072380;28;20426;-70
2021/06/08 03:34:54;;;;;;;29.17;25.97;;;;;;;;;;5073469;28;20542;-69
2021/06/08 03:40:25;;;;;;;29.27;25.93;;;;;;;;;;5073579;28;20576;-71
2021/06/08 03:42:51;;;;;;;29.70;26.60;;;;;;;;;;5073635;28;20414;-70
2021/06/08 03:45:18;;;;;;;37.23;28.07;;;;;;;;;;5073405;28;20509;-69
2021/06/08 03:47:47;;;;;;;30.80;26.40;;;;;;;;;;5073491;28;20410;-70
2021/06/08 03:50:15;;;;;;;36.13;28.77;;;;;;;;;;5073247;28;20742;-70
2021/06/08 03:52:42;;;;;;;35.00;25.80;;;;;;;;;;5073347;28;20407;-71
2021/06/08 03:55:09;;;;;;;31.47;27.10;;;;;;;;;;5073374;28;20611;-70
2021/06/08 03:57:39;;;;;;;33.67;29.00;;;;;;;;;;5073223;28;20498;-70
2021/06/08 04:00:07;;;;;;;32.20;27.13;;;;;;;;;;5073203;28;20476;-70
2021/06/08 04:02:34;;;;;;;31.67;26.97;;;;;;;;;;5073432;28;20779;-73
2021/06/08 04:05:00;;;;;;;31.67;27.10;;;;;;;;;;5072927;28;20426;-71
2021/06/08 04:10:30;;;;;;;28.40;25.40;;;;;;;;;;5073029;28;20410;-69
2021/06/08 04:12:59;;;;;;;31.33;28.00;;;;;;;;;;5072437;28;20422;-69
2021/06/08 04:15:26;;;;;;;31.80;26.47;;;;;;;;;;5072282;28;20493;-70
2021/06/08 04:17:52;;;;;;;31.17;26.57;;;;;;;;;;5072642;28;20413;-70
2021/06/08 04:20:18;;;;;;;29.63;26.23;;;;;;;;;;5071185;28;20473;-69
2021/06/08 04:25:48;;;;;;;27.90;24.90;;;;;;;;;;5072940;28;20444;-69
2021/06/08 04:28:14;;;;;;;29.07;25.60;;;;;;;;;;5072664;28;20893;-70
2021/06/08 04:30:40;;;;;;;27.97;25.00;;;;;;;;;;5072601;28;20501;-69
2021/06/08 04:33:06;;;;;;;27.43;24.50;;;;;;;;;;5071929;28;20437;-69
2021/06/08 04:35:32;;;;;;;33.00;24.90;;;;;;;;;;5072333;28;20470;-69
2021/06/08 04:41:02;;;;;;;28.27;25.20;;;;;;;;;;5072256;28;20480;-69
2021/06/08 04:43:28;;;;;;;30.47;25.90;;;;;;;;;;5072326;28;20410;-69
2021/06/08 04:45:54;;;;;;;29.90;25.97;;;;;;;;;;5072361;28;20834;-71
2021/06/08 04:48:23;;;;;;;29.03;25.67;;;;;;;;;;5072204;28;20754;-69
2021/06/08 04:50:50;;;;;;;28.17;25.10;;;;;;;;;;5072303;28;20919;-68
2021/06/08 04:56:20;;;;;;;28.07;24.63;;;;;;;;;;5072193;28;20432;-73
2021/06/08 04:58:46;;;;;;;32.53;26.53;;;;;;;;;;5072320;28;20467;-71
2021/06/08 05:01:18;;;;;;;28.50;25.07;;;;;;;;;;5072135;28;20426;-71
2021/06/08 05:03:49;;;;;;;27.80;23.67;;;;;;;;;;5071799;28;20479;-70
2021/06/08 05:06:20;;;;;;;30.03;26.60;;;;;;;;;;5072172;28;20418;-71
2021/06/08 05:08:50;;;;;;;26.83;23.63;;;;;;;;;;5072130;28;20425;-70
2021/06/08 05:11:22;;;;;;;30.50;25.40;;;;;;;;;;5070714;28;20852;-70
2021/06/08 05:13:49;;;;;;;28.10;24.57;;;;;;;;;;5071640;28;20419;-71
2021/06/08 05:16:15;;;;;;;29.13;25.20;;;;;;;;;;5070538;28;20449;-70
2021/06/08 05:18:42;;;;;;;28.20;25.13;;;;;;;;;;5071691;28;20503;-72
2021/06/08 05:21:10;;;;;;;27.53;23.40;;;;;;;;;;5072653;28;20481;-69
2021/06/08 05:26:41;;;;;;;28.60;24.70;;;;;;;;;;5071564;28;20458;-68
2021/06/08 05:29:08;;;;;;;27.93;24.80;;;;;;;;;;5071991;28;20414;-68
2021/06/08 05:31:34;;;;;;;26.83;23.97;;;;;;;;;;5071958;28;20394;-68
2021/06/08 05:34:01;;;;;;;28.37;24.13;;;;;;;;;;5071822;28;21030;-70
2021/06/08 05:36:34;;;;;;;30.73;25.00;;;;;;;;;;5071240;28;20446;-69
2021/06/08 05:39:00;;;;;;;27.53;24.47;;;;;;;;;;5071666;28;20413;-70
2021/06/08 05:41:27;;;;;;;26.90;23.50;;;;;;;;;;5071117;28;20497;-70
2021/06/08 05:43:53;;;;;;;28.30;25.27;;;;;;;;;;5071531;28;20420;-69
2021/06/08 05:46:19;;;;;;;28.40;24.53;;;;;;;;;;5071170;28;20432;-72
2021/06/08 05:48:45;;;;;;;32.03;26.03;;;;;;;;;;5071108;28;20410;-69
2021/06/08 05:51:11;;;;;;;31.07;25.30;;;;;;;;;;5071303;28;20402;-69
2021/06/08 05:56:41;;;;;;;28.37;23.70;;;;;;;;;;5071242;28;20420;-70
2021/06/08 05:59:07;;;;;;;27.60;24.70;;;;;;;;;;5071155;28;20932;-70
2021/06/08 06:01:34;;;;;;;28.93;24.87;;;;;;;;;;5071361;28;20437;-70
2021/06/08 06:04:00;;;;;;;26.33;23.30;;;;;;;;;;5070916;28;20410;-69
2021/06/08 06:06:26;;;;;;;28.07;24.80;;;;;;;;;;5071077;28;20418;-71
2021/06/08 06:11:56;;;;;;;30.07;26.83;;;;;;;;;;5070885;28;20421;-69
2021/06/08 06:14:23;;;;;;;30.10;26.20;;;;;;;;;;5071063;28;20991;-69
2021/06/08 06:16:52;;;;;;;31.07;25.10;;;;;;;;;;5071260;28;20890;-68
2021/06/08 06:19:19;;;;;;;28.13;24.90;;;;;;;;;;5070877;28;20454;-69
2021/06/08 06:21:46;;;;;;;30.13;24.20;;;;;;;;;;5071076;28;20426;-68
2021/06/08 06:27:15;;;;;;;32.20;24.47;;;;;;;;;;5071031;28;20404;-70
2021/06/08 06:29:42;;;;;;;28.37;24.23;;;;;;;;;;5071009;28;20403;-69
2021/06/08 06:32:08;;;;;;;30.13;23.37;;;;;;;;;;5070920;28;20410;-67
2021/06/08 06:34:34;;;;;;;27.13;23.67;;;;;;;;;;5070636;28;20919;-69
2021/06/08 06:42:52;;;;;;;34.33;25.07;;;;;;;;;;5074232;28;20505;-70
2021/06/08 06:45:20;;;;;;;27.73;24.00;;;;;;;;;;5074216;28;20750;-70
2021/06/08 06:47:47;;;;;;;27.10;24.07;;;;;;;;;;5072746;28;20865;-70
2021/06/08 06:50:13;;;;;;;29.57;26.23;;;;;;;;;;5074184;28;20401;-69
2021/06/08 06:52:40;;;;;;;27.33;23.93;;;;;;;;;;5073012;28;20500;-69
2021/06/08 06:55:10;;;;;;;29.47;25.03;;;;;;;;;;5074405;28;20415;-70
2021/06/08 06:57:36;;;;;;;28.70;25.67;;;;;;;;;;5072767;28;20844;-70
2021/06/08 07:00:05;;;;;;;29.63;25.43;;;;;;;;;;5073958;28;20473;-69
2021/06/08 07:02:31;;;;;;;26.77;23.90;;;;;;;;;;5074380;28;20410;-71
2021/06/08 07:04:58;;;;;;;26.80;21.87;;;;;;;;;;5074105;28;20414;-69
2021/06/08 07:07:24;;;;;;;24.73;22.13;;;;;;;;;;5074417;28;20406;-72
2021/06/08 07:09:54;;;;;;;25.40;22.70;;;;;;;;;;5074379;28;20441;-70
2021/06/08 07:12:23;;;;;;;27.20;23.73;;;;;;;;;;5074150;28;20766;-68
2021/06/08 07:14:50;;;;;;;28.83;24.67;;;;;;;;;;5072807;28;20485;-69
2021/06/08 07:17:17;;;;;;;26.07;22.63;;;;;;;;;;5072737;28;20485;-69
2021/06/08 07:19:44;;;;;;;29.23;24.90;;;;;;;;;;5072572;28;20453;-67
2021/06/08 07:22:10;;;;;;;27.53;23.77;;;;;;;;;;5073116;28;20427;-70
2021/06/08 07:27:40;;;;;;;29.40;24.77;;;;;;;;;;5072328;28;20743;-70
2021/06/08 07:30:08;;;;;;;29.77;26.60;;;;;;;;;;5073189;28;20406;-73
2021/06/08 07:32:40;;;;;;;29.40;24.30;;;;;;;;;;5072977;28;20433;-71
2021/06/08 07:35:19;;;;;;;29.93;25.83;;;;;;;;;;5072429;28;20477;-69
2021/06/08 07:37:47;;;;;;;27.60;24.70;;;;;;;;;;5072572;28;20435;-73
2021/06/08 07:40:21;;;;;;;30.00;25.17;;;;;;;;;;5072154;28;20465;-72
2021/06/08 07:42:52;;;;;;;28.27;24.50;;;;;;;;;;5070614;28;20424;-74
2021/06/08 07:45:19;;;;;;;29.80;25.30;;;;;;;;;;5072051;28;20414;-73
2021/06/08 07:47:50;;;;;;;32.20;25.00;;;;;;;;;;5071681;28;20414;-71
2021/06/08 07:50:17;;;;;;;27.47;24.60;;;;;;;;;;5070233;28;20861;-73
2021/06/08 07:52:43;;;;;;;27.43;24.47;;;;;;;;;;5071560;28;20444;-72
2021/06/08 07:58:12;;;;;;;30.33;24.33;;;;;;;;;;5070989;28;21006;-73
2021/06/08 08:00:39;;;;;;;27.17;24.27;;;;;;;;;;5071715;28;20977;-73
2021/06/08 08:05:50;;;;;;;30.10;24.83;;;;;;;;;;5071654;28;20468;-69
2021/06/08 08:08:20;;;;;;;27.30;24.37;;;;;;;;;;5071800;28;20513;-70
2021/06/08 08:10:47;;;;;;;28.33;25.30;;;;;;;;;;5071833;28;20417;-69
2021/06/08 08:13:15;;;;;;;27.10;24.20;;;;;;;;;;5071300;28;20406;-69
2021/06/08 08:15:43;;;;;;;29.80;22.93;;;;;;;;;;5070139;28;20433;-69
2021/06/08 08:18:09;;;;;;;28.70;25.70;;;;;;;;;;5071705;28;20934;-68
2021/06/08 08:20:51;;;;;;;28.63;25.53;;;;;;;;;;5071368;28;20497;-69
2021/06/08 08:23:18;;;;;;;27.93;23.70;;;;;;;;;;5071730;28;20802;-69
2021/06/08 08:25:44;;;;;;;33.70;26.97;;;;;;;;;;5070105;28;20418;-69
2021/06/08 08:28:10;;;;;;;27.23;24.30;;;;;;;;;;5071373;28;20512;-68
2021/06/08 08:30:37;;;;;;;29.33;25.30;;;;;;;;;;5071263;28;20457;-71
2021/06/08 08:33:03;;;;;;;27.30;24.37;;;;;;;;;;5070733;28;20411;-70
2021/06/08 08:35:31;;;;;;;30.30;26.20;;;;;;;;;;5070989;28;20488;-69
2021/06/08 08:37:57;;;;;;;30.20;27.00;;;;;;;;;;5071103;28;20485;-70
2021/06/08 08:43:26;;;;;;;28.13;25.23;;;;;;;;;;5070893;28;20456;-69
2021/06/08 08:45:52;;;;;;;28.57;24.37;;;;;;;;;;5071084;28;20450;-69
2021/06/08 08:48:20;;;;;;;26.90;24.20;;;;;;;;;;5071004;28;20413;-70
2021/06/08 08:50:47;;;;;;;28.57;25.60;;;;;;;;;;5069759;28;21011;-72
2021/06/08 08:53:16;;;;;;;29.43;23.67;;;;;;;;;;5070899;28;20407;-69
2021/06/08 08:58:46;;;;;;;29.27;26.20;;;;;;;;;;5070832;28;20464;-68
2021/06/08 09:01:13;;;;;;;30.27;27.20;;;;;;;;;;5070619;28;20462;-69
2021/06/08 09:03:39;;;;;;;28.10;25.20;;;;;;;;;;5069053;28;20524;-71
2021/06/08 09:06:05;;;;;;;32.90;26.23;;;;;;;;;;5070911;28;20472;-69
2021/06/08 09:08:32;;;;;;;28.90;25.90;;;;;;;;;;5070856;28;20506;-69
2021/06/08 09:11:01;;;;;;;29.57;26.53;;;;;;;;;;5070559;28;20440;-74
2021/06/08 09:13:27;;;;;;;30.60;27.30;;;;;;;;;;5070549;28;20721;-69
2021/06/08 09:15:54;;;;;;;28.33;24.80;;;;;;;;;;5067768;28;20943;-71
2021/06/08 09:18:23;;;;;;;30.77;27.23;;;;;;;;;;5070444;28;20425;-69
2021/06/08 09:20:49;;;;;;;30.53;27.23;;;;;;;;;;5070348;28;20474;-70
2021/06/08 09:23:20;;;;;;;29.70;25.27;;;;;;;;;;5070318;28;20485;-69
2021/06/08 09:28:50;;;;;;;29.87;26.80;;;;;;;;;;5070327;28;20513;-69
2021/06/08 09:31:25;;;;;;;29.07;25.97;;;;;;;;;;5070794;28;20413;-80
2021/06/08 09:33:55;;;;;;;30.80;27.67;;;;;;;;;;5071283;28;20414;-79
2021/06/08 09:36:22;;;;;;;29.77;25.67;;;;;;;;;;5070999;28;20606;-77
2021/06/08 09:38:51;;;;;;;30.03;26.83;;;;;;;;;;5070858;28;20406;-80
2021/06/08 09:41:52;;;;;;;27.57;24.87;;;;;;;;;;5071087;28;20466;-81
2021/06/08 09:44:19;;;;;;;29.03;26.03;;;;;;;;;;5069132;28;20779;-79
2021/06/08 09:46:50;;;;;;;29.87;26.77;;;;;;;;;;5068667;28;20557;-79
2021/06/08 09:49:38;;;;;;;29.30;26.30;;;;;;;;;;5068860;28;20409;-78
2021/06/08 09:52:08;;;;;;;27.57;24.77;;;;;;;;;;5069326;28;20433;-75
2021/06/08 09:54:43;;;;;;;30.10;26.90;;;;;;;;;;5053038;28;20449;-77
2021/06/08 09:57:16;;;;;;;33.53;27.80;;;;;;;;;;5069274;28;20426;-79
2021/06/08 09:59:48;;;;;;;29.53;26.57;;;;;;;;;;5069573;28;20553;-82
2021/06/08 10:02:26;;;;;;;29.20;26.23;;;;;;;;;;5069159;28;20411;-79
2021/06/08 10:04:53;;;;;;;31.00;27.70;;;;;;;;;;5069137;28;20429;-76
2021/06/08 10:07:28;;;;;;;28.93;26.00;;;;;;;;;;5069311;28;20403;-78
2021/06/08 10:10:08;;;;;;;29.00;25.97;;;;;;;;;;5069258;28;20426;-79
2021/06/08 10:12:35;;;;;;;31.27;28.07;;;;;;;;;;5069991;28;20451;-81
2021/06/08 10:15:05;;;;;;;29.43;26.47;;;;;;;;;;5073189;28;20422;-78
2021/06/08 10:17:31;;;;;;;29.63;26.53;;;;;;;;;;5073524;28;20421;-78
2021/06/08 10:20:00;;;;;;;29.23;26.20;;;;;;;;;;5075011;28;20466;-77
2021/06/08 10:22:30;;;;;;;30.57;27.67;;;;;;;;;;5074906;28;20421;-78
2021/06/08 10:24:56;;;;;;;32.90;29.50;;;;;;;;;;5074206;28;20438;-78
2021/06/08 10:27:22;;;;;;;29.87;26.90;;;;;;;;;;5075036;28;20414;-79
2021/06/08 10:29:48;;;;;;;33.07;28.60;;;;;;;;;;5074858;28;20428;-79
2021/06/08 10:32:14;;;;;;;29.43;26.63;;;;;;;;;;5074960;28;20426;-82
2021/06/08 10:34:41;;;;;;;27.93;25.13;;;;;;;;;;5074779;28;20916;-82
2021/06/08 10:37:08;;;;;;;28.53;25.77;;;;;;;;;;5073336;28;20430;-81
2021/06/08 10:39:35;;;;;;;29.97;25.57;;;;;;;;;;5074757;28;20453;-81
2021/06/08 10:42:01;;;;;;;27.30;24.50;;;;;;;;;;5074645;28;20780;-81
2021/06/08 10:44:28;;;;;;;28.37;25.50;;;;;;;;;;5074490;28;20433;-78
2021/06/08 10:47:03;;;;;;;28.13;25.13;;;;;;;;;;5074559;28;20422;-80
2021/06/08 10:49:36;;;;;;;25.90;23.27;;;;;;;;;;5073312;28;20433;-81
2021/06/08 10:52:10;;;;;;;27.60;24.90;;;;;;;;;;5074355;28;20418;-81
2021/06/08 10:54:40;;;;;;;26.43;23.83;;;;;;;;;;5074293;28;20804;-81
2021/06/08 10:57:13;;;;;;;27.17;24.50;;;;;;;;;;5074427;28;20705;-79
2021/06/08 10:59:40;;;;;;;26.63;24.00;;;;;;;;;;5074840;28;21006;-79
2021/06/08 11:02:07;;;;;;;26.87;24.30;;;;;;;;;;5073685;28;20411;-82
2021/06/08 11:04:51;;;;;;;26.23;23.83;;;;;;;;;;5073636;28;20422;-80
2021/06/08 11:07:37;;;;;;;28.80;25.77;;;;;;;;;;5073617;28;20495;-79
2021/06/08 11:10:23;;;;;;;27.53;24.70;;;;;;;;;;5072160;28;20479;-79
2021/06/08 11:12:49;;;;;;;26.90;24.40;;;;;;;;;;5073357;28;20436;-80
2021/06/08 11:15:21;;;;;;;27.90;25.30;;;;;;;;;;5072801;28;20521;-78
2021/06/08 11:17:47;;;;;;;27.70;25.00;;;;;;;;;;5073838;28;20449;-77
2021/06/08 11:20:13;;;;;;;29.60;26.90;;;;;;;;;;5073253;28;20465;-80
2021/06/08 11:22:39;;;;;;;28.40;25.50;;;;;;;;;;5073367;28;20413;-79
2021/06/08 11:25:06;;;;;;;28.13;25.17;;;;;;;;;;5073436;28;20424;-81
2021/06/08 11:27:51;;;;;;;29.20;26.30;;;;;;;;;;5072726;28;20478;-78
2021/06/08 11:30:27;;;;;;;26.03;23.73;;;;;;;;;;5073223;28;20715;-79
2021/06/08 11:32:54;;;;;;;29.67;26.77;;;;;;;;;;5073447;28;20432;-80
2021/06/08 11:35:29;;;;;;;26.23;23.63;;;;;;;;;;5072953;28;20565;-80
2021/06/08 11:37:55;;;;;;;27.37;24.77;;;;;;;;;;5073047;28;20424;-80
2021/06/08 11:40:33;;;;;;;27.63;24.93;;;;;;;;;;5073472;28;20816;-78
2021/06/08 11:42:59;;;;;;;27.97;25.20;;;;;;;;;;5073091;28;20411;-80
2021/06/08 11:45:28;;;;;;;29.13;26.33;;;;;;;;;;5073033;28;20484;-77
2021/06/08 11:47:54;;;;;;;28.27;25.60;;;;;;;;;;5073395;28;20833;-79
2021/06/08 11:50:38;;;;;;;29.77;26.97;;;;;;;;;;5073090;28;20530;-77
2021/06/08 11:53:08;;;;;;;28.03;25.33;;;;;;;;;;5072155;28;20472;-80
2021/06/08 11:55:35;;;;;;;28.40;25.60;;;;;;;;;;5073171;28;20489;-77
2021/06/08 11:58:01;;;;;;;27.33;24.73;;;;;;;;;;5072756;28;20410;-82
2021/06/08 12:00:46;;;;;;;28.83;26.03;;;;;;;;;;5072985;28;20473;-74
2021/06/08 12:03:28;;;;;;;26.90;24.27;;;;;;;;;;5072800;28;20402;-78
2021/06/08 12:05:54;;;;;;;25.47;23.10;;;;;;;;;;5072975;28;20418;-80
2021/06/08 12:08:23;;;;;;;27.33;23.77;;;;;;;;;;5072917;28;20418;-82
2021/06/08 12:10:50;;;;;;;25.70;23.30;;;;;;;;;;5072913;28;20410;-81
2021/06/08 12:13:17;;;;;;;26.33;23.73;;;;;;;;;;5072696;28;20402;-79
2021/06/08 12:15:48;;;;;;;27.43;24.87;;;;;;;;;;5071436;28;20434;-79
2021/06/08 12:18:20;;;;;;;26.00;23.50;;;;;;;;;;5072250;28;20410;-79
2021/06/08 12:20:47;;;;;;;26.37;23.87;;;;;;;;;;5072511;28;20809;-79
2021/06/08 12:23:31;;;;;;;24.50;22.30;;;;;;;;;;5072446;28;20438;-79
2021/06/08 12:26:06;;;;;;;26.23;23.67;;;;;;;;;;5072396;28;20433;-82
2021/06/08 12:28:32;;;;;;;25.13;22.73;;;;;;;;;;5072991;28;20758;-80
2021/06/08 12:31:11;;;;;;;23.70;21.60;;;;;;;;;;5072472;28;20423;-79
2021/06/08 12:33:38;;;;;;;24.73;22.30;;;;;;;;;;5072452;28;20468;-81
2021/06/08 12:36:07;;;;;;;25.87;23.37;;;;;;;;;;5071650;28;20830;-81
2021/06/08 12:38:33;;;;;;;25.30;22.77;;;;;;;;;;5070881;28;20479;-79
2021/06/08 12:41:00;;;;;;;24.10;22.00;;;;;;;;;;5072239;28;20501;-79
2021/06/08 12:43:27;;;;;;;22.23;20.13;;;;;;;;;;5072746;28;20829;-79
2021/06/08 12:45:57;;;;;;;26.13;23.53;;;;;;;;;;5071009;28;20422;-78
2021/06/08 12:48:23;;;;;;;25.03;22.80;;;;;;;;;;5072575;28;20429;-79
2021/06/08 12:50:49;;;;;;;25.30;22.70;;;;;;;;;;5072558;28;20420;-80
2021/06/08 12:53:25;;;;;;;24.93;22.43;;;;;;;;;;5071010;28;21021;-80
2021/06/08 12:55:52;;;;;;;23.83;21.63;;;;;;;;;;5072442;28;20437;-76
2021/06/08 12:58:19;;;;;;;24.17;21.87;;;;;;;;;;5072168;28;20860;-75
2021/06/08 13:00:45;;;;;;;23.50;21.40;;;;;;;;;;5069518;28;20504;-78
2021/06/08 13:03:12;;;;;;;23.43;21.10;;;;;;;;;;5072167;28;20498;-77
2021/06/08 13:05:39;;;;;;;23.70;21.60;;;;;;;;;;5071403;28;20414;-78
2021/06/08 13:08:06;;;;;;;26.30;23.80;;;;;;;;;;5071807;28;20414;-80
2021/06/08 13:10:33;;;;;;;25.70;23.20;;;;;;;;;;5071676;28;20900;-79
2021/06/08 13:16:02;;;;;;;22.87;20.77;;;;;;;;;;5071352;28;20413;-77
2021/06/08 13:18:40;;;;;;;21.97;19.97;;;;;;;;;;5071770;28;20414;-76
2021/06/08 13:21:06;;;;;;;21.00;19.10;;;;;;;;;;5070324;28;20546;-80
2021/06/08 13:23:34;;;;;;;21.43;19.53;;;;;;;;;;5069834;28;20410;-82
2021/06/08 13:26:01;;;;;;;21.93;20.03;;;;;;;;;;5070754;28;20418;-83
2021/06/08 13:28:35;;;;;;;20.63;18.83;;;;;;;;;;5069120;28;20531;-79
2021/06/08 13:31:01;;;;;;;20.43;18.20;;;;;;;;;;5070485;28;20422;-80
2021/06/08 13:33:28;;;;;;;18.57;17.00;;;;;;;;;;5070347;28;20406;-77
2021/06/08 13:35:54;;;;;;;22.17;20.07;;;;;;;;;;5070292;28;20483;-76
2021/06/08 13:38:21;;;;;;;19.57;17.90;;;;;;;;;;5070228;28;20772;-79
2021/06/08 13:40:49;;;;;;;20.93;19.13;;;;;;;;;;5070386;28;20550;-79
2021/06/08 13:46:20;;;;;;;20.37;17.27;;;;;;;;;;5070209;28;20487;-80
2021/06/08 13:48:54;;;;;;;19.33;17.70;;;;;;;;;;5072231;28;20632;-76
2021/06/08 13:51:27;;;;;;;20.27;18.67;;;;;;;;;;5073174;28;20912;-78
2021/06/08 13:54:07;;;;;;;18.93;17.37;;;;;;;;;;5074195;28;20499;-79
2021/06/08 13:56:47;;;;;;;18.23;16.73;;;;;;;;;;5074283;28;20525;-78
2021/06/08 14:02:08;;;;;;;19.00;17.37;;;;;;;;;;5073716;28;21000;-80
2021/06/08 14:04:42;;;;;;;20.67;18.87;;;;;;;;;;5071777;28;20426;-79
2021/06/08 14:07:08;;;;;;;19.27;17.50;;;;;;;;;;5072751;28;20422;-80
2021/06/08 14:09:41;;;;;;;19.87;18.10;;;;;;;;;;5073787;28;20474;-79
2021/06/08 14:12:07;;;;;;;18.10;16.57;;;;;;;;;;5073671;28;20888;-79
2021/06/08 14:14:34;;;;;;;19.37;17.70;;;;;;;;;;5074113;28;20418;-76
2021/06/08 14:17:08;;;;;;;19.27;17.47;;;;;;;;;;5074064;28;20406;-79
2021/06/08 14:19:34;;;;;;;17.43;15.93;;;;;;;;;;5073797;28;21046;-79
2021/06/08 14:22:00;;;;;;;20.67;18.70;;;;;;;;;;5074204;28;20807;-79
2021/06/08 14:24:26;;;;;;;17.93;16.33;;;;;;;;;;5072365;28;20457;-77
2021/06/08 14:26:52;;;;;;;18.07;16.67;;;;;;;;;;5073644;28;20846;-79
2021/06/08 14:29:18;;;;;;;18.90;17.10;;;;;;;;;;5073453;28;20410;-78
2021/06/08 14:31:44;;;;;;;17.83;16.20;;;;;;;;;;5073865;28;20424;-77
2021/06/08 14:34:10;;;;;;;17.13;15.80;;;;;;;;;;5073224;28;20421;-79
2021/06/08 14:36:36;;;;;;;17.17;15.70;;;;;;;;;;5073091;28;20821;-79
2021/06/08 14:39:03;;;;;;;16.43;15.00;;;;;;;;;;5072679;28;20406;-80
2021/06/08 14:41:29;;;;;;;16.30;14.93;;;;;;;;;;5073518;28;20465;-79
2021/06/08 14:46:59;;;;;;;17.27;14.30;;;;;;;;;;5073272;28;20706;-80
2021/06/08 14:49:25;;;;;;;15.37;14.27;;;;;;;;;;5073789;28;20918;-78
2021/06/08 14:51:51;;;;;;;16.77;15.30;;;;;;;;;;5074795;28;20704;-79
2021/06/08 14:54:17;;;;;;;16.40;14.70;;;;;;;;;;5074537;28;20957;-76
2021/06/08 14:56:43;;;;;;;16.33;15.03;;;;;;;;;;5073990;28;20410;-80
2021/06/08 15:02:16;;;;;;;16.33;14.80;;;;;;;;;;5073924;28;20486;-79
2021/06/08 15:04:42;;;;;;;16.73;15.43;;;;;;;;;;5073840;28;20406;-76
2021/06/08 15:07:08;;;;;;;16.97;15.37;;;;;;;;;;5074007;28;20509;-79
2021/06/08 15:09:34;;;;;;;17.53;15.73;;;;;;;;;;5074033;28;20452;-81
2021/06/08 15:12:01;;;;;;;18.23;16.73;;;;;;;;;;5074022;28;20769;-80
2021/06/08 15:17:31;;;;;;;19.60;16.23;;;;;;;;;;5073970;28;20417;-81
2021/06/08 15:19:59;;;;;;;16.53;15.13;;;;;;;;;;5071882;28;20476;-79
2021/06/08 15:22:25;;;;;;;19.33;17.73;;;;;;;;;;5073639;28;20402;-79
2021/06/08 15:24:51;;;;;;;16.90;15.20;;;;;;;;;;5073695;28;20410;-78
2021/06/08 15:27:17;;;;;;;17.50;15.73;;;;;;;;;;5073465;28;20444;-80
2021/06/08 15:29:43;;;;;;;18.10;16.43;;;;;;;;;;5073466;28;20504;-80
2021/06/08 15:32:09;;;;;;;16.17;14.87;;;;;;;;;;5073175;28;20432;-80
2021/06/08 15:34:36;;;;;;;16.80;15.17;;;;;;;;;;5073395;28;20507;-79
2021/06/08 15:37:02;;;;;;;20.23;18.40;;;;;;;;;;5073117;28;20901;-79
2021/06/08 15:39:29;;;;;;;17.63;16.13;;;;;;;;;;5073420;28;20843;-78
2021/06/08 15:41:55;;;;;;;17.80;16.10;;;;;;;;;;5070629;28;20606;-80
2021/06/08 15:47:25;;;;;;;17.03;15.63;;;;;;;;;;5073467;28;20421;-80
2021/06/08 15:49:51;;;;;;;16.60;15.10;;;;;;;;;;5073125;28;20414;-79
2021/06/08 15:52:18;;;;;;;17.70;16.17;;;;;;;;;;5073324;28;20409;-78
2021/06/08 15:54:44;;;;;;;18.13;16.60;;;;;;;;;;5073602;28;20407;-79
2021/06/08 15:57:10;;;;;;;16.90;15.50;;;;;;;;;;5069849;28;20415;-79
2021/06/08 16:02:39;;;;;;;19.27;17.23;;;;;;;;;;5073003;28;20479;-79
2021/06/08 16:05:05;;;;;;;18.87;17.03;;;;;;;;;;5072800;28;20422;-80
2021/06/08 16:07:31;;;;;;;16.30;14.87;;;;;;;;;;5073133;28;20748;-79